createdAt,value
2018-01-28T00:00:18.510Z,4.32
2018-01-28T00:01:21.826Z,4.35
2018-01-28T00:02:24.867Z,4.28
2018-01-28T00:03:27.843Z,4.31
2018-01-28T00:04:30.670Z,4.32
2018-01-28T00:05:33.496Z,4.33
2018-01-28T00:06:36.483Z,4.33
2018-01-28T00:07:39.581Z,4.36
2018-01-28T00:08:42.479Z,4.38
2018-01-28T00:09:45.361Z,4.35
2018-01-28T00:10:48.254Z,4.34
2018-01-28T00:11:51.159Z,4.37
2018-01-28T00:12:54.175Z,4.42
2018-01-28T00:13:58.291Z,4.42
2018-01-28T00:15:01.182Z,4.41
2018-01-28T00:16:04.278Z,4.39
2018-01-28T00:17:07.294Z,4.36
2018-01-28T00:18:10.341Z,4.33
2018-01-28T00:19:13.202Z,4.34
2018-01-28T00:20:16.433Z,4.27
2018-01-28T00:21:19.419Z,4.21
2018-01-28T00:22:22.316Z,4.02
2018-01-28T00:23:25.169Z,3.96
2018-01-28T00:24:28.076Z,3.99
2018-01-28T00:25:30.930Z,3.96
2018-01-28T00:26:34.108Z,3.91
2018-01-28T00:27:37.174Z,3.84
2018-01-28T00:28:40.103Z,3.80
2018-01-28T00:29:42.986Z,3.80
2018-01-28T00:30:45.873Z,3.83
2018-01-28T00:31:48.791Z,3.84
2018-01-28T00:32:52.139Z,3.87
2018-01-28T00:33:55.041Z,3.87
2018-01-28T00:34:57.930Z,3.87
2018-01-28T00:36:00.825Z,3.86
2018-01-28T00:37:03.809Z,3.82
2018-01-28T00:38:06.742Z,3.75
2018-01-28T00:39:09.924Z,3.69
2018-01-28T00:40:12.796Z,3.58
2018-01-28T00:41:15.634Z,3.63
2018-01-28T00:42:18.520Z,3.67
2018-01-28T00:43:21.389Z,3.54
2018-01-28T00:44:24.284Z,3.63
2018-01-28T00:45:27.458Z,3.66
2018-01-28T00:46:30.351Z,3.69
2018-01-28T00:47:33.120Z,3.72
2018-01-28T00:48:35.972Z,3.74
2018-01-28T00:49:38.780Z,3.68
2018-01-28T00:50:41.715Z,3.77
2018-01-28T00:51:44.812Z,3.84
2018-01-28T00:52:47.689Z,3.77
2018-01-28T00:53:50.603Z,3.74
2018-01-28T00:54:53.489Z,3.77
2018-01-28T00:55:56.583Z,3.79
2018-01-28T00:56:59.456Z,3.64
2018-01-28T00:58:02.671Z,3.62
2018-01-28T00:59:05.579Z,3.70
2018-01-28T01:00:08.458Z,3.69
2018-01-28T01:01:11.582Z,3.65
2018-01-28T01:02:14.476Z,3.51
2018-01-28T01:03:17.367Z,3.40
2018-01-28T01:04:20.610Z,3.40
2018-01-28T01:05:23.531Z,3.37
2018-01-28T01:06:26.567Z,3.37
2018-01-28T01:07:29.516Z,3.33
2018-01-28T01:08:32.416Z,3.32
2018-01-28T01:09:35.281Z,3.27
2018-01-28T01:10:38.484Z,3.33
2018-01-28T01:11:41.360Z,3.26
2018-01-28T01:12:44.254Z,3.25
2018-01-28T01:13:47.153Z,3.23
2018-01-28T01:14:50.033Z,3.26
2018-01-28T01:15:52.942Z,3.23
2018-01-28T01:16:56.227Z,3.22
2018-01-28T01:17:59.287Z,3.23
2018-01-28T01:19:02.205Z,3.23
2018-01-28T01:20:05.095Z,3.23
2018-01-28T01:21:08.005Z,3.21
2018-01-28T01:22:10.905Z,3.23
2018-01-28T01:23:14.054Z,3.24
2018-01-28T01:24:16.924Z,3.18
2018-01-28T01:25:19.698Z,3.18
2018-01-28T01:26:22.501Z,3.18
2018-01-28T01:27:25.270Z,3.14
2018-01-28T01:28:28.058Z,3.17
2018-01-28T01:29:31.202Z,3.15
2018-01-28T01:30:34.097Z,3.09
2018-01-28T01:31:37.225Z,3.09
2018-01-28T01:32:40.166Z,3.15
2018-01-28T01:33:43.095Z,3.12
2018-01-28T01:34:45.977Z,3.12
2018-01-28T01:35:49.122Z,3.06
2018-01-28T01:36:51.987Z,3.07
2018-01-28T01:37:54.837Z,3.07
2018-01-28T01:38:57.694Z,3.07
2018-01-28T01:40:00.618Z,3.08
2018-01-28T01:41:03.522Z,3.05
2018-01-28T01:42:06.752Z,3.06
2018-01-28T01:43:09.641Z,3.05
2018-01-28T01:44:12.591Z,3.06
2018-01-28T01:45:15.474Z,2.99
2018-01-28T01:46:18.365Z,2.98
2018-01-28T01:47:21.247Z,3.00
2018-01-28T01:48:24.417Z,3.02
2018-01-28T01:49:27.313Z,2.94
2018-01-28T01:50:30.187Z,2.93
2018-01-28T01:51:33.074Z,2.96
2018-01-28T01:52:35.992Z,2.93
2018-01-28T01:53:38.867Z,2.99
2018-01-28T01:54:42.037Z,2.97
2018-01-28T01:55:44.901Z,2.99
2018-01-28T01:56:47.773Z,2.99
2018-01-28T01:57:50.721Z,2.99
2018-01-28T01:58:53.644Z,2.92
2018-01-28T01:59:56.577Z,3.00
2018-01-28T02:00:59.740Z,2.91
2018-01-28T02:02:02.768Z,2.92
2018-01-28T02:03:05.623Z,2.90
2018-01-28T02:04:08.497Z,2.99
2018-01-28T02:05:11.399Z,2.93
2018-01-28T02:06:14.280Z,2.91
2018-01-28T02:07:17.543Z,2.94
2018-01-28T02:08:20.415Z,2.94
2018-01-28T02:09:23.277Z,2.98
2018-01-28T02:10:26.210Z,3.00
2018-01-28T02:11:29.121Z,2.96
2018-01-28T02:12:31.992Z,2.92
2018-01-28T02:13:35.193Z,2.98
2018-01-28T02:14:38.289Z,3.01
2018-01-28T02:15:41.199Z,2.96
2018-01-28T02:16:44.064Z,2.98
2018-01-28T02:17:46.982Z,2.98
2018-01-28T02:18:49.837Z,2.97
2018-01-28T02:19:53.064Z,2.97
2018-01-28T02:20:55.918Z,2.98
2018-01-28T02:21:58.807Z,2.96
2018-01-28T02:23:01.695Z,2.93
2018-01-28T02:24:04.589Z,2.92
2018-01-28T02:25:07.467Z,2.89
2018-01-28T02:26:10.624Z,2.94
2018-01-28T02:27:14.498Z,2.97
2018-01-28T02:28:17.370Z,2.98
2018-01-28T02:29:20.189Z,2.99
2018-01-28T02:30:23.029Z,3.02
2018-01-28T02:31:25.869Z,3.02
2018-01-28T02:32:28.984Z,2.97
2018-01-28T02:33:31.840Z,2.94
2018-01-28T02:34:34.770Z,2.93
2018-01-28T02:35:37.694Z,2.95
2018-01-28T02:36:40.692Z,2.95
2018-01-28T02:37:43.505Z,2.98
2018-01-28T02:38:46.648Z,3.01
2018-01-28T02:39:49.544Z,3.00
2018-01-28T02:40:52.383Z,3.02
2018-01-28T02:41:55.220Z,3.02
2018-01-28T02:42:58.100Z,3.00
2018-01-28T02:44:00.938Z,3.00
2018-01-28T02:45:04.089Z,2.95
2018-01-28T02:46:06.962Z,2.99
2018-01-28T02:47:09.815Z,3.01
2018-01-28T02:48:12.668Z,3.03
2018-01-28T02:49:15.427Z,3.02
2018-01-28T02:50:18.186Z,3.00
2018-01-28T02:51:21.200Z,3.04
2018-01-28T02:52:23.950Z,3.08
2018-01-28T02:53:26.716Z,3.07
2018-01-28T02:54:29.453Z,3.03
2018-01-28T02:55:32.193Z,3.04
2018-01-28T02:56:35.029Z,3.08
2018-01-28T02:57:38.304Z,3.08
2018-01-28T02:58:41.167Z,3.10
2018-01-28T02:59:44.074Z,3.08
2018-01-28T03:00:46.936Z,3.10
2018-01-28T03:01:49.808Z,3.10
2018-01-28T03:02:52.950Z,3.09
2018-01-28T03:03:55.762Z,3.09
2018-01-28T03:04:58.569Z,3.14
2018-01-28T03:06:01.401Z,3.13
2018-01-28T03:07:04.266Z,3.16
2018-01-28T03:08:07.148Z,3.16
2018-01-28T03:09:10.257Z,3.18
2018-01-28T03:10:13.298Z,3.18
2018-01-28T03:11:16.137Z,3.20
2018-01-28T03:12:19.001Z,3.21
2018-01-28T03:13:21.838Z,3.23
2018-01-28T03:14:24.684Z,3.20
2018-01-28T03:15:27.877Z,3.22
2018-01-28T03:16:30.783Z,3.19
2018-01-28T03:17:33.648Z,3.25
2018-01-28T03:18:36.529Z,3.27
2018-01-28T03:19:39.420Z,3.26
2018-01-28T03:20:42.472Z,3.28
2018-01-28T03:21:45.687Z,3.29
2018-01-28T03:22:48.609Z,3.32
2018-01-28T03:23:51.459Z,3.32
2018-01-28T03:24:54.380Z,3.30
2018-01-28T03:25:57.267Z,3.21
2018-01-28T03:27:00.682Z,3.22
2018-01-28T03:28:03.852Z,3.29
2018-01-28T03:29:06.721Z,3.31
2018-01-28T03:30:09.587Z,3.32
2018-01-28T03:31:12.536Z,3.31
2018-01-28T03:32:15.525Z,3.33
2018-01-28T03:33:18.474Z,3.38
2018-01-28T03:34:22.247Z,3.40
2018-01-28T03:35:25.251Z,3.44
2018-01-28T03:36:28.254Z,3.43
2018-01-28T03:37:31.224Z,3.43
2018-01-28T03:38:34.210Z,3.42
2018-01-28T03:39:37.115Z,3.38
2018-01-28T03:40:40.314Z,3.38
2018-01-28T03:41:43.192Z,3.50
2018-01-28T03:42:46.092Z,3.52
2018-01-28T03:43:48.940Z,3.44
2018-01-28T03:44:51.824Z,3.42
2018-01-28T03:45:54.667Z,3.42
2018-01-28T03:46:57.801Z,3.45
2018-01-28T03:48:00.668Z,3.50
2018-01-28T03:49:03.561Z,3.51
2018-01-28T03:50:06.435Z,3.53
2018-01-28T03:51:09.375Z,3.55
2018-01-28T03:52:12.233Z,3.54
2018-01-28T03:53:15.392Z,3.53
2018-01-28T03:54:18.423Z,3.51
2018-01-28T03:55:21.335Z,3.55
2018-01-28T03:56:24.228Z,3.55
2018-01-28T03:57:27.125Z,3.53
2018-01-28T03:58:29.961Z,3.61
2018-01-28T03:59:33.277Z,3.59
2018-01-28T04:00:36.153Z,3.51
2018-01-28T04:01:39.025Z,3.48
2018-01-28T04:02:41.891Z,3.49
2018-01-28T04:03:44.785Z,3.52
2018-01-28T04:04:47.696Z,3.54
2018-01-28T04:05:51.002Z,3.58
2018-01-28T04:06:53.888Z,3.62
2018-01-28T04:07:56.754Z,3.63
2018-01-28T04:08:59.626Z,3.70
2018-01-28T04:10:02.499Z,3.78
2018-01-28T04:11:05.377Z,3.75
2018-01-28T04:12:08.580Z,3.74
2018-01-28T04:13:11.484Z,3.67
2018-01-28T04:14:14.366Z,3.69
2018-01-28T04:15:17.312Z,3.71
2018-01-28T04:16:20.168Z,3.70
2018-01-28T04:17:23.012Z,3.69
2018-01-28T04:18:26.194Z,3.70
2018-01-28T04:19:29.068Z,3.72
2018-01-28T04:20:31.941Z,3.75
2018-01-28T04:21:34.898Z,3.79
2018-01-28T04:22:37.801Z,3.76
2018-01-28T04:23:40.685Z,3.66
2018-01-28T04:24:43.790Z,3.68
2018-01-28T04:25:46.601Z,3.70
2018-01-28T04:26:49.419Z,3.75
2018-01-28T04:27:52.283Z,3.79
2018-01-28T04:28:55.145Z,3.75
2018-01-28T04:29:58.035Z,3.67
2018-01-28T04:31:01.197Z,3.70
2018-01-28T04:32:04.084Z,3.69
2018-01-28T04:33:06.992Z,3.72
2018-01-28T04:34:09.877Z,3.82
2018-01-28T04:35:12.935Z,3.81
2018-01-28T04:36:15.798Z,3.84
2018-01-28T04:37:18.826Z,3.83
2018-01-28T04:38:21.793Z,3.82
2018-01-28T04:39:25.039Z,3.83
2018-01-28T04:40:28.321Z,3.83
2018-01-28T04:41:31.470Z,3.85
2018-01-28T04:42:34.301Z,3.84
2018-01-28T04:43:37.097Z,3.84
2018-01-28T04:44:40.040Z,3.81
2018-01-28T04:45:42.924Z,3.84
2018-01-28T04:46:49.135Z,3.83
2018-01-28T04:47:52.120Z,3.82
2018-01-28T04:48:54.908Z,3.84
2018-01-28T04:49:57.728Z,3.79
2018-01-28T04:51:00.577Z,3.84
2018-01-28T04:52:03.657Z,3.89
2018-01-28T04:53:06.562Z,3.88
2018-01-28T04:54:09.856Z,3.92
2018-01-28T04:55:12.758Z,3.87
2018-01-28T04:56:15.642Z,3.86
2018-01-28T04:57:18.829Z,3.83
2018-01-28T04:58:21.801Z,3.86
2018-01-28T04:59:24.703Z,3.81
2018-01-28T05:00:28.009Z,3.81
2018-01-28T05:01:31.076Z,3.78
2018-01-28T05:02:34.209Z,3.86
2018-01-28T05:03:37.096Z,3.84
2018-01-28T05:04:40.095Z,3.80
2018-01-28T05:05:43.001Z,3.85
2018-01-28T05:06:46.235Z,3.85
2018-01-28T05:07:49.353Z,3.83
2018-01-28T05:08:52.332Z,3.88
2018-01-28T05:09:55.335Z,3.84
2018-01-28T05:10:58.210Z,3.84
2018-01-28T05:12:01.202Z,3.80
2018-01-28T05:13:04.556Z,3.93
2018-01-28T05:14:07.524Z,3.88
2018-01-28T05:15:10.449Z,3.90
2018-01-28T05:16:13.363Z,3.92
2018-01-28T05:17:16.230Z,3.89
2018-01-28T05:18:19.155Z,3.90
2018-01-28T05:19:22.511Z,3.90
2018-01-28T05:20:25.512Z,3.91
2018-01-28T05:21:28.538Z,3.90
2018-01-28T05:22:31.576Z,3.94
2018-01-28T05:23:34.605Z,3.96
2018-01-28T05:24:38.081Z,3.97
2018-01-28T05:25:41.440Z,3.96
2018-01-28T05:26:47.176Z,3.97
2018-01-28T05:27:50.001Z,3.95
2018-01-28T05:28:52.883Z,3.98
2018-01-28T05:29:55.683Z,4.01
2018-01-28T05:30:58.526Z,4.06
2018-01-28T05:32:01.656Z,4.06
2018-01-28T05:33:04.515Z,4.10
2018-01-28T05:34:07.385Z,4.06
2018-01-28T05:35:10.286Z,4.04
2018-01-28T05:36:13.056Z,4.02
2018-01-28T05:37:15.842Z,4.03
2018-01-28T05:38:18.889Z,4.03
2018-01-28T05:39:21.655Z,4.11
2018-01-28T05:40:24.484Z,4.16
2018-01-28T05:41:27.273Z,4.14
2018-01-28T05:42:30.060Z,4.09
2018-01-28T05:43:32.928Z,4.00
2018-01-28T05:44:36.068Z,3.99
2018-01-28T05:45:38.911Z,4.03
2018-01-28T05:46:41.794Z,4.01
2018-01-28T05:47:44.682Z,4.02
2018-01-28T05:48:47.584Z,4.03
2018-01-28T05:49:50.476Z,4.07
2018-01-28T05:50:53.633Z,3.97
2018-01-28T05:51:56.479Z,3.99
2018-01-28T05:52:59.437Z,4.01
2018-01-28T05:54:02.332Z,4.02
2018-01-28T05:55:05.260Z,3.97
2018-01-28T05:56:08.148Z,3.99
2018-01-28T05:57:11.408Z,4.03
2018-01-28T05:58:14.263Z,4.03
2018-01-28T05:59:17.132Z,4.09
2018-01-28T06:00:20.058Z,4.01
2018-01-28T06:01:22.922Z,3.98
2018-01-28T06:02:25.980Z,3.98
2018-01-28T06:03:29.108Z,3.94
2018-01-28T06:04:32.008Z,4.00
2018-01-28T06:05:34.877Z,4.06
2018-01-28T06:06:37.784Z,4.05
2018-01-28T06:07:40.680Z,4.05
2018-01-28T06:08:43.535Z,4.02
2018-01-28T06:09:46.727Z,3.99
2018-01-28T06:10:49.617Z,4.04
2018-01-28T06:11:52.524Z,3.95
2018-01-28T06:12:55.427Z,3.98
2018-01-28T06:13:58.279Z,4.03
2018-01-28T06:15:01.209Z,3.99
2018-01-28T06:16:04.422Z,3.98
2018-01-28T06:17:07.289Z,4.01
2018-01-28T06:18:10.152Z,4.04
2018-01-28T06:19:13.059Z,4.04
2018-01-28T06:20:15.923Z,4.09
2018-01-28T06:21:18.879Z,4.14
2018-01-28T06:22:22.179Z,4.09
2018-01-28T06:23:25.124Z,4.05
2018-01-28T06:24:27.992Z,4.03
2018-01-28T06:25:30.882Z,4.02
2018-01-28T06:26:33.877Z,3.97
2018-01-28T06:27:36.742Z,4.00
2018-01-28T06:28:39.963Z,3.98
2018-01-28T06:29:42.975Z,3.97
2018-01-28T06:30:45.843Z,4.02
2018-01-28T06:31:48.718Z,4.03
2018-01-28T06:32:51.635Z,4.04
2018-01-28T06:33:54.502Z,4.01
2018-01-28T06:34:57.651Z,4.03
2018-01-28T06:36:00.536Z,4.05
2018-01-28T06:37:03.402Z,4.04
2018-01-28T06:38:06.260Z,4.04
2018-01-28T06:39:09.268Z,4.04
2018-01-28T06:40:12.128Z,4.02
2018-01-28T06:41:15.280Z,4.02
2018-01-28T06:42:18.300Z,4.04
2018-01-28T06:43:21.387Z,4.08
2018-01-28T06:44:24.152Z,4.09
2018-01-28T06:45:27.022Z,4.10
2018-01-28T06:46:29.926Z,4.08
2018-01-28T06:47:32.998Z,4.05
2018-01-28T06:48:35.831Z,4.04
2018-01-28T06:49:38.684Z,4.04
2018-01-28T06:50:41.558Z,4.06
2018-01-28T06:51:44.393Z,4.08
2018-01-28T06:52:47.295Z,4.08
2018-01-28T06:53:50.472Z,4.13
2018-01-28T06:54:53.359Z,4.11
2018-01-28T06:55:56.339Z,4.13
2018-01-28T06:56:59.207Z,4.07
2018-01-28T06:58:02.081Z,4.10
2018-01-28T06:59:04.939Z,4.11
2018-01-28T07:00:08.117Z,4.13
2018-01-28T07:01:11.089Z,4.08
2018-01-28T07:02:13.965Z,4.12
2018-01-28T07:03:16.826Z,4.14
2018-01-28T07:04:19.759Z,4.16
2018-01-28T07:05:22.689Z,4.19
2018-01-28T07:06:25.859Z,4.21
2018-01-28T07:07:28.769Z,4.22
2018-01-28T07:08:31.635Z,4.20
2018-01-28T07:09:34.513Z,4.22
2018-01-28T07:10:37.384Z,4.26
2018-01-28T07:11:40.339Z,4.19
2018-01-28T07:12:43.481Z,4.18
2018-01-28T07:13:46.347Z,4.18
2018-01-28T07:14:49.193Z,4.20
2018-01-28T07:15:52.073Z,4.23
2018-01-28T07:16:54.954Z,4.23
2018-01-28T07:17:57.910Z,4.16
2018-01-28T07:19:01.075Z,4.16
2018-01-28T07:20:04.044Z,4.18
2018-01-28T07:21:06.914Z,4.17
2018-01-28T07:22:09.773Z,4.16
2018-01-28T07:23:12.808Z,4.22
2018-01-28T07:24:15.718Z,4.25
2018-01-28T07:25:18.889Z,4.22
2018-01-28T07:26:21.711Z,4.24
2018-01-28T07:27:24.530Z,4.24
2018-01-28T07:28:27.674Z,4.27
2018-01-28T07:29:30.532Z,4.32
2018-01-28T07:30:33.537Z,4.32
2018-01-28T07:31:36.684Z,4.34
2018-01-28T07:32:39.569Z,4.32
2018-01-28T07:33:42.441Z,4.26
2018-01-28T07:34:45.319Z,4.23
2018-01-28T07:35:48.221Z,4.28
2018-01-28T07:36:51.119Z,4.31
2018-01-28T07:37:54.313Z,4.29
2018-01-28T07:38:57.218Z,4.27
2018-01-28T07:40:00.085Z,4.31
2018-01-28T07:41:03.132Z,4.31
2018-01-28T07:42:06.102Z,4.28
2018-01-28T07:43:08.931Z,4.26
2018-01-28T07:44:12.149Z,4.31
2018-01-28T07:45:15.072Z,4.34
2018-01-28T07:46:18.014Z,4.29
2018-01-28T07:47:20.908Z,4.34
2018-01-28T07:48:23.806Z,4.30
2018-01-28T07:49:26.741Z,4.35
2018-01-28T07:50:29.918Z,4.39
2018-01-28T07:51:32.809Z,4.36
2018-01-28T07:52:35.825Z,4.35
2018-01-28T07:53:38.836Z,4.35
2018-01-28T07:54:41.864Z,4.32
2018-01-28T07:55:44.731Z,4.35
2018-01-28T07:56:47.915Z,4.32
2018-01-28T07:57:51.011Z,4.37
2018-01-28T07:58:53.954Z,4.36
2018-01-28T07:59:56.927Z,4.36
2018-01-28T08:00:59.927Z,4.34
2018-01-28T08:02:02.819Z,4.36
2018-01-28T08:03:05.989Z,4.37
2018-01-28T08:04:08.964Z,4.37
2018-01-28T08:05:12.135Z,4.39
2018-01-28T08:06:15.025Z,4.37
2018-01-28T08:07:18.052Z,4.39
2018-01-28T08:08:21.044Z,4.38
2018-01-28T08:09:24.375Z,4.39
2018-01-28T08:10:27.427Z,4.40
2018-01-28T08:11:30.488Z,4.39
2018-01-28T08:12:33.549Z,4.40
2018-01-28T08:13:36.624Z,4.36
2018-01-28T08:14:39.652Z,4.38
2018-01-28T08:15:42.889Z,4.41
2018-01-28T08:16:46.018Z,4.41
2018-01-28T08:17:48.892Z,4.46
2018-01-28T08:18:51.865Z,4.42
2018-01-28T08:19:54.800Z,4.48
2018-01-28T08:20:57.765Z,4.47
2018-01-28T08:22:01.205Z,4.48
2018-01-28T08:23:04.237Z,4.46
2018-01-28T08:24:07.223Z,4.46
2018-01-28T08:25:10.243Z,4.47
2018-01-28T08:26:13.312Z,4.47
2018-01-28T08:27:16.428Z,4.48
2018-01-28T08:28:19.816Z,4.47
2018-01-28T08:29:22.849Z,4.48
2018-01-28T08:30:25.776Z,4.52
2018-01-28T08:31:28.697Z,4.54
2018-01-28T08:32:31.780Z,4.56
2018-01-28T08:33:34.839Z,4.53
2018-01-28T08:34:38.156Z,4.58
2018-01-28T08:35:41.106Z,4.53
2018-01-28T08:36:44.169Z,4.55
2018-01-28T08:37:47.455Z,4.55
2018-01-28T08:38:50.405Z,4.50
2018-01-28T08:39:53.363Z,4.48
2018-01-28T08:40:56.659Z,4.51
2018-01-28T08:41:59.568Z,4.55
2018-01-28T08:43:02.857Z,4.52
2018-01-28T08:44:05.757Z,4.55
2018-01-28T08:45:08.644Z,4.55
2018-01-28T08:46:11.503Z,4.54
2018-01-28T08:47:14.686Z,4.57
2018-01-28T08:48:17.605Z,4.58
2018-01-28T08:49:20.469Z,4.66
2018-01-28T08:50:23.404Z,4.63
2018-01-28T08:51:26.294Z,4.64
2018-01-28T08:52:29.091Z,4.65
2018-01-28T08:53:32.286Z,4.67
2018-01-28T08:54:35.187Z,4.70
2018-01-28T08:55:38.063Z,4.68
2018-01-28T08:56:40.947Z,4.62
2018-01-28T08:57:44.003Z,4.61
2018-01-28T08:58:47.047Z,4.68
2018-01-28T08:59:50.371Z,4.63
2018-01-28T09:00:53.289Z,4.65
2018-01-28T09:01:56.270Z,4.68
2018-01-28T09:02:59.821Z,4.64
2018-01-28T09:04:02.776Z,4.66
2018-01-28T09:05:05.736Z,4.67
2018-01-28T09:06:08.883Z,4.69
2018-01-28T09:07:11.718Z,4.70
2018-01-28T09:08:15.386Z,4.75
2018-01-28T09:09:18.227Z,4.75
2018-01-28T09:10:21.167Z,4.75
2018-01-28T09:11:24.187Z,4.73
2018-01-28T09:12:27.108Z,4.72
2018-01-28T09:13:30.024Z,4.79
2018-01-28T09:14:33.026Z,4.85
2018-01-28T09:15:35.910Z,4.75
2018-01-28T09:16:38.859Z,4.74
2018-01-28T09:17:42.061Z,4.76
2018-01-28T09:18:44.913Z,4.79
2018-01-28T09:19:47.818Z,4.82
2018-01-28T09:20:50.696Z,4.80
2018-01-28T09:21:53.609Z,4.77
2018-01-28T09:22:56.571Z,4.87
2018-01-28T09:23:59.824Z,4.90
2018-01-28T09:25:02.822Z,4.88
2018-01-28T09:26:05.893Z,4.88
2018-01-28T09:27:09.015Z,4.84
2018-01-28T09:28:11.865Z,4.89
2018-01-28T09:29:14.731Z,4.89
2018-01-28T09:30:17.955Z,4.85
2018-01-28T09:31:20.835Z,4.85
2018-01-28T09:32:23.773Z,4.84
2018-01-28T09:33:26.676Z,4.86
2018-01-28T09:34:29.657Z,4.85
2018-01-28T09:35:32.580Z,4.90
2018-01-28T09:36:35.762Z,4.89
2018-01-28T09:37:38.673Z,4.92
2018-01-28T09:38:41.554Z,4.91
2018-01-28T09:39:44.577Z,4.94
2018-01-28T09:40:47.482Z,4.99
2018-01-28T09:41:50.381Z,4.96
2018-01-28T09:42:53.673Z,4.97
2018-01-28T09:43:56.586Z,4.92
2018-01-28T09:44:59.488Z,4.93
2018-01-28T09:46:02.359Z,4.98
2018-01-28T09:47:05.252Z,4.95
2018-01-28T09:48:08.245Z,4.95
2018-01-28T09:49:11.515Z,4.95
2018-01-28T09:50:14.464Z,4.95
2018-01-28T09:51:17.366Z,4.95
2018-01-28T09:52:20.272Z,4.96
2018-01-28T09:53:23.089Z,4.98
2018-01-28T09:54:25.923Z,4.98
2018-01-28T09:55:29.105Z,5.00
2018-01-28T09:56:31.909Z,4.99
2018-01-28T09:57:34.680Z,4.99
2018-01-28T09:58:37.567Z,5.00
2018-01-28T09:59:40.486Z,5.03
2018-01-28T10:00:43.473Z,5.02
2018-01-28T10:01:46.834Z,5.04
2018-01-28T10:02:49.717Z,5.05
2018-01-28T10:03:52.601Z,5.08
2018-01-28T10:04:55.487Z,5.10
2018-01-28T10:05:58.463Z,5.11
2018-01-28T10:07:01.401Z,5.12
2018-01-28T10:08:04.627Z,5.16
2018-01-28T10:09:07.518Z,5.13
2018-01-28T10:10:10.392Z,5.09
2018-01-28T10:11:13.267Z,5.11
2018-01-28T10:12:16.183Z,5.14
2018-01-28T10:13:19.039Z,5.13
2018-01-28T10:14:22.299Z,5.10
2018-01-28T10:15:25.223Z,5.14
2018-01-28T10:16:28.107Z,5.15
2018-01-28T10:17:30.985Z,5.20
2018-01-28T10:18:33.859Z,5.17
2018-01-28T10:19:36.744Z,5.15
2018-01-28T10:20:39.950Z,5.17
2018-01-28T10:21:42.801Z,5.22
2018-01-28T10:22:45.681Z,5.25
2018-01-28T10:23:48.531Z,5.21
2018-01-28T10:24:51.607Z,5.21
2018-01-28T10:25:54.537Z,5.23
2018-01-28T10:26:57.790Z,5.22
2018-01-28T10:28:00.803Z,5.24
2018-01-28T10:29:04.767Z,5.27
2018-01-28T10:30:07.685Z,5.26
2018-01-28T10:31:10.676Z,5.25
2018-01-28T10:32:13.481Z,5.25
2018-01-28T10:33:16.623Z,5.26
2018-01-28T10:34:19.446Z,5.29
2018-01-28T10:35:22.289Z,5.33
2018-01-28T10:36:25.190Z,5.32
2018-01-28T10:37:28.206Z,5.39
2018-01-28T10:38:31.090Z,5.33
2018-01-28T10:39:34.299Z,5.33
2018-01-28T10:40:37.225Z,5.34
2018-01-28T10:41:40.104Z,5.39
2018-01-28T10:42:43.083Z,5.40
2018-01-28T10:43:45.987Z,5.36
2018-01-28T10:44:48.921Z,5.34
2018-01-28T10:45:52.134Z,5.43
2018-01-28T10:46:55.045Z,5.43
2018-01-28T10:47:57.972Z,5.37
2018-01-28T10:49:00.959Z,5.42
2018-01-28T10:50:03.876Z,5.38
2018-01-28T10:51:07.368Z,5.34
2018-01-28T10:52:10.530Z,5.39
2018-01-28T10:53:13.678Z,5.34
2018-01-28T10:54:17.045Z,5.34
2018-01-28T10:55:19.991Z,5.35
2018-01-28T10:56:22.879Z,5.29
2018-01-28T10:57:25.812Z,5.32
2018-01-28T10:58:29.087Z,5.32
2018-01-28T10:59:31.974Z,5.32
2018-01-28T11:00:34.773Z,5.42
2018-01-28T11:01:37.714Z,5.35
2018-01-28T11:02:40.755Z,5.32
2018-01-28T11:03:43.662Z,5.32
2018-01-28T11:04:46.846Z,5.33
2018-01-28T11:05:49.693Z,5.30
2018-01-28T11:06:52.609Z,5.29
2018-01-28T11:07:55.532Z,5.27
2018-01-28T11:08:58.614Z,5.31
2018-01-28T11:10:01.546Z,5.30
2018-01-28T11:11:04.711Z,5.33
2018-01-28T11:12:07.599Z,5.33
2018-01-28T11:13:10.554Z,5.33
2018-01-28T11:14:13.494Z,5.39
2018-01-28T11:15:16.358Z,5.35
2018-01-28T11:16:19.392Z,5.31
2018-01-28T11:17:22.538Z,5.33
2018-01-28T11:18:25.711Z,5.35
2018-01-28T11:19:28.616Z,5.35
2018-01-28T11:20:31.501Z,5.33
2018-01-28T11:21:34.492Z,5.31
2018-01-28T11:22:37.516Z,5.30
2018-01-28T11:23:40.698Z,5.37
2018-01-28T11:24:45.287Z,5.32
2018-01-28T11:25:48.162Z,5.32
2018-01-28T11:26:51.086Z,5.38
2018-01-28T11:27:53.975Z,5.34
2018-01-28T11:28:56.974Z,5.34
2018-01-28T11:30:00.219Z,5.37
2018-01-28T11:31:03.135Z,5.34
2018-01-28T11:32:06.030Z,5.31
2018-01-28T11:33:08.898Z,5.32
2018-01-28T11:34:11.909Z,5.33
2018-01-28T11:35:14.821Z,5.32
2018-01-28T11:36:18.038Z,5.35
2018-01-28T11:37:20.899Z,5.36
2018-01-28T11:38:23.802Z,5.33
2018-01-28T11:39:26.742Z,5.35
2018-01-28T11:40:29.698Z,5.38
2018-01-28T11:41:32.609Z,5.39
2018-01-28T11:42:35.770Z,5.42
2018-01-28T11:43:38.610Z,5.43
2018-01-28T11:44:41.408Z,5.38
2018-01-28T11:45:44.187Z,5.38
2018-01-28T11:46:47.123Z,5.41
2018-01-28T11:47:50.065Z,5.43
2018-01-28T11:48:53.324Z,5.43
2018-01-28T11:49:56.224Z,5.42
2018-01-28T11:50:59.566Z,5.44
2018-01-28T11:52:02.436Z,5.46
2018-01-28T11:53:05.418Z,5.46
2018-01-28T11:54:08.354Z,5.44
2018-01-28T11:55:11.608Z,5.47
2018-01-28T11:56:14.546Z,5.49
2018-01-28T11:57:17.475Z,5.51
2018-01-28T11:58:20.363Z,5.53
2018-01-28T11:59:23.563Z,5.52
2018-01-28T12:00:27.265Z,5.49
2018-01-28T12:01:30.722Z,5.51
2018-01-28T12:02:33.620Z,5.52
2018-01-28T12:03:36.493Z,5.47
2018-01-28T12:04:39.365Z,5.51
2018-01-28T12:05:42.306Z,5.54
2018-01-28T12:06:45.209Z,5.51
2018-01-28T12:07:48.096Z,5.59
2018-01-28T12:08:51.148Z,5.58
2018-01-28T12:09:54.045Z,5.59
2018-01-28T12:10:56.973Z,5.60
2018-01-28T12:12:00.914Z,5.61
2018-01-28T12:13:04.297Z,5.67
2018-01-28T12:14:07.302Z,5.71
2018-01-28T12:15:10.177Z,5.72
2018-01-28T12:16:13.138Z,5.74
2018-01-28T12:17:15.978Z,5.81
2018-01-28T12:18:18.866Z,5.76
2018-01-28T12:19:21.690Z,5.81
2018-01-28T12:20:24.605Z,5.82
2018-01-28T12:21:27.671Z,5.91
2018-01-28T12:22:30.648Z,5.88
2018-01-28T12:23:33.645Z,5.90
2018-01-28T12:24:37.258Z,5.87
2018-01-28T12:25:40.202Z,5.91
2018-01-28T12:26:43.066Z,5.96
2018-01-28T12:27:46.033Z,5.99
2018-01-28T12:28:48.904Z,6.08
2018-01-28T12:29:51.766Z,6.13
2018-01-28T12:30:54.660Z,6.15
2018-01-28T12:31:57.690Z,6.21
2018-01-28T12:33:00.656Z,6.24
2018-01-28T12:34:03.914Z,6.28
2018-01-28T12:35:07.019Z,6.31
2018-01-28T12:36:09.967Z,6.39
2018-01-28T12:37:13.312Z,6.38
2018-01-28T12:38:16.256Z,6.38
2018-01-28T12:39:19.194Z,6.41
2018-01-28T12:40:22.215Z,6.52
2018-01-28T12:41:25.268Z,6.54
2018-01-28T12:42:28.404Z,6.42
2018-01-28T12:43:31.302Z,6.45
2018-01-28T12:44:34.305Z,6.43
2018-01-28T12:45:37.205Z,6.51
2018-01-28T12:46:40.143Z,6.59
2018-01-28T12:47:43.207Z,6.59
2018-01-28T12:48:46.495Z,6.69
2018-01-28T12:49:49.785Z,6.66
2018-01-28T12:50:52.664Z,6.70
2018-01-28T12:51:55.539Z,6.75
2018-01-28T12:52:58.463Z,6.71
2018-01-28T12:54:01.368Z,6.69
2018-01-28T12:55:04.284Z,6.74
2018-01-28T12:56:07.312Z,6.74
2018-01-28T12:57:10.229Z,6.63
2018-01-28T12:58:13.299Z,6.64
2018-01-28T12:59:16.180Z,6.62
2018-01-28T13:00:19.602Z,6.65
2018-01-28T13:01:22.562Z,6.64
2018-01-28T13:02:25.482Z,6.70
2018-01-28T13:03:28.470Z,6.78
2018-01-28T13:04:31.374Z,6.79
2018-01-28T13:05:34.415Z,6.74
2018-01-28T13:06:37.803Z,6.71
2018-01-28T13:07:40.685Z,6.70
2018-01-28T13:08:43.620Z,6.72
2018-01-28T13:09:46.480Z,6.76
2018-01-28T13:10:49.558Z,6.78
2018-01-28T13:11:52.468Z,6.85
2018-01-28T13:12:55.749Z,6.81
2018-01-28T13:13:58.625Z,6.78
2018-01-28T13:15:01.544Z,6.83
2018-01-28T13:16:04.454Z,6.80
2018-01-28T13:17:07.344Z,6.82
2018-01-28T13:18:10.281Z,6.82
2018-01-28T13:19:13.642Z,6.87
2018-01-28T13:20:16.526Z,6.88
2018-01-28T13:21:19.467Z,6.82
2018-01-28T13:22:22.383Z,6.83
2018-01-28T13:23:25.307Z,6.81
2018-01-28T13:24:28.231Z,6.84
2018-01-28T13:25:31.530Z,6.83
2018-01-28T13:26:34.792Z,6.91
2018-01-28T13:27:37.705Z,6.88
2018-01-28T13:28:40.619Z,6.86
2018-01-28T13:29:43.522Z,6.89
2018-01-28T13:30:46.417Z,6.96
2018-01-28T13:31:49.880Z,7.04
2018-01-28T13:32:52.745Z,6.96
2018-01-28T13:33:55.685Z,6.93
2018-01-28T13:34:58.598Z,6.91
2018-01-28T13:36:01.560Z,6.94
2018-01-28T13:37:04.502Z,6.97
2018-01-28T13:38:07.752Z,6.97
2018-01-28T13:39:10.812Z,6.97
2018-01-28T13:40:13.686Z,7.02
2018-01-28T13:41:16.622Z,7.00
2018-01-28T13:42:19.564Z,6.99
2018-01-28T13:43:22.416Z,7.03
2018-01-28T13:44:25.790Z,7.07
2018-01-28T13:45:28.635Z,7.05
2018-01-28T13:46:31.723Z,7.09
2018-01-28T13:47:34.587Z,7.09
2018-01-28T13:48:37.462Z,7.10
2018-01-28T13:49:40.383Z,7.11
2018-01-28T13:50:43.696Z,7.04
2018-01-28T13:51:46.595Z,7.04
2018-01-28T13:52:49.525Z,7.09
2018-01-28T13:53:52.472Z,7.11
2018-01-28T13:54:55.521Z,7.09
2018-01-28T13:55:58.484Z,7.09
2018-01-28T13:57:01.822Z,7.08
2018-01-28T13:58:04.748Z,7.06